Time;durP1;ratioP1;P1;durP2;ratioP2;P2;SDS_P1;SDS_P2;PMS_P1;PMS_P2;Temp;Humidity;BMP_temperature;BMP_pressure;BME280_temperature;BME280_humidity;BME280_pressure;Samples;Min_cycle;Max_cycle;Signal;HPM_P1;HPM_P2
2023/04/24 00:01:48;;;;;;;0.82;0.70;;;9.90;99.90;;;;;;5040105;28;20056;-84
2023/04/24 00:04:16;;;;;;;0.80;0.70;;;9.80;99.90;;;;;;5037124;28;20920;-84
2023/04/24 00:06:43;;;;;;;1.55;1.20;;;9.90;99.90;;;;;;5053929;28;20398;-83
2023/04/24 00:09:11;;;;;;;1.13;0.85;;;9.80;99.90;;;;;;5068378;28;20070;-85
2023/04/24 00:11:37;;;;;;;1.08;0.82;;;9.70;99.90;;;;;;5067617;28;20041;-84
2023/04/24 00:14:03;;;;;;;1.55;0.93;;;9.70;99.90;;;;;;5041767;28;20047;-83
2023/04/24 00:16:29;;;;;;;1.33;1.00;;;9.80;99.90;;;;;;5073320;28;20041;-84
2023/04/24 00:18:55;;;;;;;2.45;0.90;;;9.80;99.90;;;;;;5058903;28;20060;-85
2023/04/24 00:21:21;;;;;;;0.88;0.88;;;9.70;99.90;;;;;;5045514;28;20121;-84
2023/04/24 00:23:47;;;;;;;1.10;0.90;;;9.70;99.90;;;;;;5039272;28;20055;-85
2023/04/24 00:26:13;;;;;;;2.67;1.10;;;9.90;99.90;;;;;;5067796;28;20497;-84
2023/04/24 00:28:39;;;;;;;1.50;1.27;;;9.80;99.90;;;;;;5065827;28;20040;-84
2023/04/24 00:31:05;;;;;;;1.70;1.17;;;9.60;99.90;;;;;;5078363;28;20517;-85
2023/04/24 00:33:31;;;;;;;1.73;1.38;;;9.80;99.90;;;;;;5065478;28;20177;-84
2023/04/24 00:35:57;;;;;;;1.90;1.40;;;9.70;99.90;;;;;;5035585;28;20110;-84
2023/04/24 00:38:22;;;;;;;4.40;1.60;;;9.70;99.90;;;;;;5024652;28;20048;-84
2023/04/24 00:40:50;;;;;;;1.67;1.38;;;9.70;99.90;;;;;;5064888;28;20045;-84
2023/04/24 00:43:16;;;;;;;2.47;1.73;;;10.00;99.90;;;;;;5067610;28;20060;-84
2023/04/24 00:45:42;;;;;;;2.45;1.60;;;9.70;99.90;;;;;;5066137;28;20685;-84
2023/04/24 00:48:08;;;;;;;2.22;1.70;;;9.90;99.90;;;;;;5047824;28;20051;-85
2023/04/24 00:50:35;;;;;;;2.33;1.90;;;9.90;99.90;;;;;;5032240;28;20055;-84
2023/04/24 00:53:01;;;;;;;2.20;1.92;;;9.90;99.90;;;;;;5038780;28;20040;-84
2023/04/24 00:55:30;;;;;;;2.17;1.75;;;9.80;99.90;;;;;;5021105;28;20082;-84
2023/04/24 00:57:57;;;;;;;4.55;2.00;;;9.80;99.90;;;;;;5085464;28;20048;-84
2023/04/24 01:00:23;;;;;;;3.60;2.20;;;9.80;99.90;;;;;;5063446;28;20105;-85
2023/04/24 01:02:49;;;;;;;2.40;2.13;;;9.70;99.90;;;;;;5042890;28;20053;-84
2023/04/24 01:05:17;;;;;;;2.63;2.30;;;9.80;99.90;;;;;;5050198;28;20151;-84
2023/04/24 01:07:45;;;;;;;2.67;2.03;;;9.90;99.90;;;;;;5081292;28;20109;-84
2023/04/24 01:10:12;;;;;;;3.90;2.42;;;9.80;99.90;;;;;;5069414;28;20104;-84
2023/04/24 01:12:38;;;;;;;3.80;2.67;;;9.90;99.90;;;;;;5075017;28;20056;-84
2023/04/24 01:15:06;;;;;;;4.05;2.83;;;9.90;99.90;;;;;;5041181;28;20036;-84
2023/04/24 01:17:32;;;;;;;4.80;2.92;;;9.70;99.90;;;;;;5035353;28;20127;-83
2023/04/24 01:19:59;;;;;;;3.40;2.60;;;9.70;99.90;;;;;;5064942;28;20394;-84
2023/04/24 01:22:28;;;;;;;4.30;2.97;;;9.80;99.90;;;;;;5059835;28;20514;-84
2023/04/24 01:24:54;;;;;;;3.97;3.08;;;9.70;99.90;;;;;;5066411;28;20066;-84
2023/04/24 01:27:20;;;;;;;4.93;3.20;;;9.80;99.90;;;;;;5052789;28;20135;-84
2023/04/24 01:29:48;;;;;;;5.05;3.58;;;10.10;99.90;;;;;;5072042;28;20047;-85
2023/04/24 01:32:15;;;;;;;5.05;3.88;;;9.70;99.90;;;;;;5058145;28;20054;-84
2023/04/24 01:34:41;;;;;;;5.43;3.83;;;9.80;99.90;;;;;;5058012;28;20044;-84
2023/04/24 01:37:07;;;;;;;5.53;4.38;;;9.90;99.90;;;;;;5054137;28;20370;-84
2023/04/24 01:39:33;;;;;;;5.57;3.85;;;9.70;99.90;;;;;;5074262;28;20051;-87
2023/04/24 01:42:01;;;;;;;6.68;4.38;;;9.70;99.90;;;;;;5057328;28;20063;-87
2023/04/24 01:44:27;;;;;;;5.95;4.53;;;9.80;99.90;;;;;;5060160;28;20041;-85
2023/04/24 01:46:54;;;;;;;7.95;4.97;;;9.70;99.90;;;;;;5036274;28;20040;-83
2023/04/24 01:49:20;;;;;;;7.75;4.78;;;9.70;99.90;;;;;;5048290;28;20050;-84
2023/04/24 01:51:47;;;;;;;8.35;5.35;;;9.70;99.90;;;;;;5061962;28;20470;-84
2023/04/24 01:54:12;;;;;;;7.72;5.22;;;9.70;99.90;;;;;;5054880;28;20044;-84
2023/04/24 01:56:44;;;;;;;9.13;5.35;;;10.00;99.90;;;;;;5049318;28;20540;-84
2023/04/24 01:59:12;;;;;;;9.05;5.65;;;9.80;99.90;;;;;;5064047;28;20047;-86
2023/04/24 02:01:38;;;;;;;9.10;5.65;;;9.80;99.90;;;;;;5040177;28;20047;-84
2023/04/24 02:04:05;;;;;;;10.13;6.40;;;10.00;99.90;;;;;;5073013;28;20078;-85
2023/04/24 02:06:31;;;;;;;8.88;5.95;;;9.80;99.90;;;;;;5063950;28;20098;-84
2023/04/24 02:08:58;;;;;;;9.45;6.22;;;9.70;99.90;;;;;;5036985;28;20032;-83
2023/04/24 02:11:24;;;;;;;8.05;5.38;;;9.80;99.90;;;;;;5062549;28;20046;-84
2023/04/24 02:13:51;;;;;;;9.52;6.28;;;9.80;99.90;;;;;;5065082;28;20487;-84
2023/04/24 02:16:17;;;;;;;9.68;6.50;;;9.90;99.90;;;;;;5055671;28;20074;-83
2023/04/24 02:18:43;;;;;;;10.95;6.50;;;9.80;99.90;;;;;;5059340;28;20132;-83
2023/04/24 02:21:09;;;;;;;12.65;6.68;;;10.10;99.90;;;;;;5037563;28;20127;-84
2023/04/24 02:23:35;;;;;;;10.15;6.80;;;9.80;99.90;;;;;;5051639;28;20054;-84
2023/04/24 02:26:01;;;;;;;9.77;7.53;;;9.90;99.90;;;;;;5055280;28;20044;-84
2023/04/24 02:28:26;;;;;;;11.45;8.00;;;9.70;99.90;;;;;;5053006;28;20051;-83
2023/04/24 02:30:52;;;;;;;13.70;8.30;;;9.90;99.90;;;;;;5064632;28;20036;-83
2023/04/24 02:33:18;;;;;;;11.52;8.52;;;9.90;99.90;;;;;;5044400;28;20579;-83
2023/04/24 02:35:44;;;;;;;10.77;8.05;;;9.80;99.90;;;;;;5042463;28;20103;-83
2023/04/24 02:38:09;;;;;;;11.60;8.35;;;9.70;99.90;;;;;;5050957;28;20040;-83
2023/04/24 02:40:35;;;;;;;11.15;8.32;;;9.80;99.90;;;;;;5069157;28;20073;-83
2023/04/24 02:43:01;;;;;;;12.30;8.45;;;9.60;99.90;;;;;;5064576;28;20040;-83
2023/04/24 02:45:27;;;;;;;10.32;8.10;;;9.80;99.90;;;;;;5036858;28;20044;-83
2023/04/24 02:47:52;;;;;;;10.40;8.13;;;9.70;99.90;;;;;;5040046;28;20037;-83
2023/04/24 02:50:18;;;;;;;14.25;7.63;;;9.60;99.90;;;;;;5053348;28;20048;-83
2023/04/24 02:52:44;;;;;;;10.98;8.55;;;9.90;99.90;;;;;;5064827;28;20478;-83
2023/04/24 02:55:10;;;;;;;10.63;8.02;;;9.40;99.90;;;;;;5049455;28;20055;-87
2023/04/24 02:57:35;;;;;;;11.52;7.90;;;9.20;99.90;;;;;;5069613;28;20099;-84
2023/04/24 03:00:02;;;;;;;9.60;7.72;;;9.50;99.90;;;;;;5036956;28;20489;-83
2023/04/24 03:02:28;;;;;;;10.50;7.97;;;9.50;99.90;;;;;;5051651;28;20071;-84
2023/04/24 03:04:54;;;;;;;10.48;7.78;;;9.00;99.90;;;;;;5036374;28;20098;-84
2023/04/24 03:07:20;;;;;;;11.07;7.78;;;9.50;99.90;;;;;;5053966;28;20050;-84
2023/04/24 03:09:47;;;;;;;8.82;6.85;;;9.50;99.90;;;;;;5054163;28;20048;-83
2023/04/24 03:12:13;;;;;;;10.90;7.20;;;9.40;99.90;;;;;;5045275;28;20039;-86
2023/04/24 03:14:38;;;;;;;8.52;7.03;;;9.50;99.90;;;;;;5033974;28;20083;-83
2023/04/24 03:17:07;;;;;;;8.63;6.38;;;9.50;99.90;;;;;;5065382;28;20048;-85
2023/04/24 03:19:32;;;;;;;9.00;6.95;;;9.40;99.90;;;;;;5053776;28;20080;-84
2023/04/24 03:21:58;;;;;;;9.05;6.43;;;9.30;99.90;;;;;;5049523;28;20444;-83
2023/04/24 03:24:24;;;;;;;7.38;6.13;;;9.50;99.90;;;;;;5057467;28;20072;-83
2023/04/24 03:26:50;;;;;;;8.98;6.55;;;9.50;99.90;;;;;;5055029;28;20588;-85
2023/04/24 03:29:15;;;;;;;6.88;5.85;;;9.30;99.90;;;;;;5024367;28;20047;-87
2023/04/24 03:31:41;;;;;;;8.73;6.47;;;9.20;99.90;;;;;;5036300;28;20047;-85
2023/04/24 03:34:07;;;;;;;8.07;5.93;;;9.40;99.90;;;;;;5075852;28;20051;-84
2023/04/24 03:36:32;;;;;;;8.02;5.95;;;9.30;99.90;;;;;;5054495;28;20055;-84
2023/04/24 03:38:58;;;;;;;7.65;6.35;;;9.30;99.90;;;;;;5038749;28;20041;-84
2023/04/24 03:41:24;;;;;;;8.25;6.55;;;9.30;99.90;;;;;;5056628;28;20135;-84
2023/04/24 03:43:50;;;;;;;9.45;6.25;;;9.40;99.90;;;;;;5045277;28;20518;-85
2023/04/24 03:46:16;;;;;;;8.95;6.57;;;9.40;99.90;;;;;;5064859;28;20044;-86
2023/04/24 03:48:41;;;;;;;8.32;6.28;;;9.30;99.90;;;;;;5040145;28;20093;-84
2023/04/24 03:51:07;;;;;;;9.95;6.78;;;9.30;99.90;;;;;;5063127;28;20039;-84
2023/04/24 03:53:33;;;;;;;9.90;7.13;;;9.20;99.90;;;;;;5045576;28;20367;-84
2023/04/24 03:55:59;;;;;;;10.20;7.45;;;9.20;99.90;;;;;;5042827;28;20052;-84
2023/04/24 03:58:24;;;;;;;11.07;7.93;;;9.20;99.90;;;;;;5075010;28;20537;-84
2023/04/24 04:00:50;;;;;;;10.13;7.68;;;9.20;99.90;;;;;;5067826;28;20048;-84
2023/04/24 04:03:16;;;;;;;10.60;7.85;;;9.40;99.90;;;;;;5048793;28;20093;-84
2023/04/24 04:05:42;;;;;;;11.80;7.95;;;9.20;99.90;;;;;;5057755;28;20090;-83
2023/04/24 04:08:08;;;;;;;10.73;8.00;;;9.20;99.90;;;;;;5057589;28;20043;-84
2023/04/24 04:10:33;;;;;;;10.43;7.47;;;9.20;99.90;;;;;;5040134;28;20044;-83
2023/04/24 04:12:59;;;;;;;9.80;7.55;;;9.20;99.90;;;;;;5065576;28;20412;-84
2023/04/24 04:15:25;;;;;;;13.57;7.68;;;9.20;99.90;;;;;;5072785;28;20421;-84
2023/04/24 04:17:51;;;;;;;9.10;6.53;;;9.20;99.90;;;;;;5040990;28;20055;-84
2023/04/24 04:20:17;;;;;;;10.07;6.75;;;9.20;99.90;;;;;;5060709;28;20040;-84
2023/04/24 04:22:42;;;;;;;8.50;6.25;;;9.00;99.90;;;;;;5034422;28;20040;-84
2023/04/24 04:25:08;;;;;;;7.28;5.45;;;9.40;99.90;;;;;;5044261;28;20087;-84
2023/04/24 04:27:35;;;;;;;8.88;5.43;;;9.20;99.90;;;;;;5069376;28;20157;-84
2023/04/24 04:30:04;;;;;;;6.82;4.97;;;9.30;99.90;;;;;;5059128;28;20127;-83
2023/04/24 04:32:37;;;;;;;5.53;4.50;;;9.30;99.90;;;;;;5072230;28;20051;-85
2023/04/24 04:35:03;;;;;;;7.78;3.97;;;9.20;99.90;;;;;;5059102;28;20040;-83
2023/04/24 04:37:33;;;;;;;4.53;3.40;;;9.10;99.90;;;;;;5047407;28;20036;-84
2023/04/24 04:39:59;;;;;;;4.13;3.45;;;9.30;99.90;;;;;;5055980;28;20048;-84
2023/04/24 04:42:26;;;;;;;3.88;3.22;;;9.10;99.90;;;;;;5055884;28;20100;-86
2023/04/24 04:44:57;;;;;;;3.85;2.80;;;9.30;99.90;;;;;;5054896;28;20131;-82
2023/04/24 04:47:26;;;;;;;5.40;2.58;;;9.30;99.90;;;;;;5036522;28;20040;-84
2023/04/24 04:49:52;;;;;;;3.50;2.28;;;9.20;99.90;;;;;;5052821;28;20485;-84
2023/04/24 04:52:18;;;;;;;3.28;1.70;;;9.30;99.90;;;;;;5050582;28;20121;-85
2023/04/24 04:54:44;;;;;;;1.73;1.63;;;9.40;99.90;;;;;;5060038;28;20100;-84
2023/04/24 04:57:10;;;;;;;1.92;1.73;;;9.20;99.90;;;;;;5042699;28;20505;-80
2023/04/24 04:59:37;;;;;;;1.73;1.38;;;9.50;99.90;;;;;;5057002;28;20048;-81
2023/04/24 05:02:02;;;;;;;2.42;1.80;;;9.30;99.90;;;;;;5045504;28;20045;-81
2023/04/24 05:04:28;;;;;;;2.03;1.73;;;9.20;99.90;;;;;;5048526;28;20494;-82
2023/04/24 05:06:54;;;;;;;2.67;1.70;;;9.10;99.90;;;;;;5036575;28;20045;-83
2023/04/24 05:09:20;;;;;;;2.50;1.65;;;9.00;99.90;;;;;;5055816;28;20043;-81
2023/04/24 05:11:45;;;;;;;3.92;2.33;;;8.80;99.90;;;;;;5075301;28;20098;-83
2023/04/24 05:14:12;;;;;;;2.65;2.10;;;9.40;99.90;;;;;;5071479;28;20071;-82
2023/04/24 05:16:39;;;;;;;5.22;2.17;;;9.20;99.90;;;;;;5071611;28;20055;-81
2023/04/24 05:19:05;;;;;;;5.72;3.00;;;9.30;99.90;;;;;;5069472;28;20048;-83
2023/04/24 05:21:31;;;;;;;5.88;3.38;;;9.30;99.90;;;;;;5071874;28;20089;-83
2023/04/24 05:23:57;;;;;;;7.32;4.07;;;9.30;99.90;;;;;;5029246;28;20086;-81
2023/04/24 05:26:23;;;;;;;6.28;3.55;;;9.40;99.90;;;;;;5057543;28;20507;-82
2023/04/24 05:28:49;;;;;;;7.05;4.38;;;9.30;99.90;;;;;;5057802;28;20472;-81
2023/04/24 05:31:15;;;;;;;6.97;4.18;;;9.30;99.90;;;;;;5044049;28;20590;-80
2023/04/24 05:33:41;;;;;;;5.60;4.03;;;9.30;99.90;;;;;;5042095;28;20500;-81
2023/04/24 05:36:07;;;;;;;6.53;4.53;;;9.30;99.90;;;;;;5048061;28;20040;-81
2023/04/24 05:38:33;;;;;;;6.43;4.30;;;9.30;99.90;;;;;;5057912;28;20153;-78
2023/04/24 05:40:58;;;;;;;7.35;4.32;;;9.40;99.90;;;;;;5070137;28;20083;-80
2023/04/24 05:43:25;;;;;;;6.93;3.90;;;9.20;99.90;;;;;;5058142;28;20052;-82
2023/04/24 05:45:50;;;;;;;5.40;3.72;;;9.10;99.90;;;;;;5068807;28;20050;-83
2023/04/24 05:48:16;;;;;;;8.25;4.05;;;9.60;99.90;;;;;;5029870;28;20040;-81
2023/04/24 05:50:42;;;;;;;6.20;3.70;;;9.20;99.90;;;;;;5053424;28;20044;-81
2023/04/24 05:53:07;;;;;;;5.57;3.90;;;9.50;99.90;;;;;;5059058;28;20097;-81
2023/04/24 05:55:33;;;;;;;8.80;3.60;;;9.40;99.90;;;;;;5053655;28;20040;-81
2023/04/24 05:58:01;;;;;;;5.97;3.28;;;9.50;99.90;;;;;;5056845;28;20104;-82
2023/04/24 06:00:28;;;;;;;5.20;3.63;;;9.00;99.90;;;;;;5067860;28;20050;-80
2023/04/24 06:02:54;;;;;;;5.85;3.60;;;9.40;99.90;;;;;;5035694;28;20079;-79
2023/04/24 06:05:19;;;;;;;4.22;3.25;;;9.30;99.90;;;;;;5045078;28;20155;-79
2023/04/24 06:07:45;;;;;;;4.28;3.17;;;9.20;99.90;;;;;;5060057;28;20163;-82
2023/04/24 06:10:11;;;;;;;5.20;3.50;;;9.30;99.90;;;;;;5027156;28;20052;-82
2023/04/24 06:12:37;;;;;;;6.13;3.30;;;9.30;99.90;;;;;;5055371;28;20044;-78
2023/04/24 06:15:03;;;;;;;6.10;3.22;;;9.40;99.90;;;;;;5047931;28;20055;-84
2023/04/24 06:17:30;;;;;;;4.95;3.20;;;9.40;99.90;;;;;;5095800;28;20435;-81
2023/04/24 06:19:56;;;;;;;9.80;3.00;;;9.80;99.90;;;;;;5049176;28;20447;-85
2023/04/24 06:22:21;;;;;;;8.82;2.97;;;9.40;99.90;;;;;;5068129;28;20044;-83
2023/04/24 06:24:48;;;;;;;6.63;3.50;;;9.20;99.90;;;;;;5042161;28;20742;-83
2023/04/24 06:27:14;;;;;;;4.32;3.10;;;9.60;99.90;;;;;;5036077;28;20044;-83
2023/04/24 06:29:40;;;;;;;5.10;2.88;;;9.60;99.90;;;;;;5047944;28;20048;-82
2023/04/24 06:32:05;;;;;;;4.40;3.15;;;9.50;99.90;;;;;;5054216;28;20059;-83
2023/04/24 06:34:32;;;;;;;6.18;3.10;;;9.50;99.90;;;;;;5061020;28;20043;-82
2023/04/24 06:36:58;;;;;;;3.95;2.58;;;9.60;99.90;;;;;;5059698;28;20047;-84
2023/04/24 06:39:24;;;;;;;4.68;3.20;;;9.70;99.90;;;;;;5071436;28;20398;-85
2023/04/24 06:41:49;;;;;;;5.57;2.10;;;9.60;99.90;;;;;;5053798;28;20073;-83
2023/04/24 06:44:16;;;;;;;2.97;1.98;;;9.60;99.90;;;;;;5065513;28;20043;-84
2023/04/24 06:46:42;;;;;;;4.35;2.17;;;9.80;99.90;;;;;;5048381;28;20071;-84
2023/04/24 06:49:08;;;;;;;4.60;2.53;;;9.50;99.90;;;;;;5063908;28;20076;-83
2023/04/24 06:51:33;;;;;;;7.13;2.90;;;9.80;99.90;;;;;;5077172;28;20047;-83
2023/04/24 06:53:59;;;;;;;5.72;2.92;;;10.00;99.90;;;;;;5056212;28;20574;-84
2023/04/24 06:56:26;;;;;;;5.55;3.15;;;9.90;99.90;;;;;;5055504;28;20086;-83
2023/04/24 06:58:51;;;;;;;5.18;3.38;;;10.00;99.90;;;;;;5057811;28;20508;-82
2023/04/24 07:01:18;;;;;;;8.73;3.65;;;10.00;99.90;;;;;;5069494;28;20040;-82
2023/04/24 07:03:43;;;;;;;9.02;4.15;;;10.00;99.90;;;;;;5068725;28;20048;-84
2023/04/24 07:06:13;;;;;;;10.18;4.63;;;10.10;99.90;;;;;;5070303;28;20047;-80
2023/04/24 07:08:38;;;;;;;11.05;4.60;;;10.20;99.90;;;;;;5074773;28;20047;-83
2023/04/24 07:11:05;;;;;;;13.27;4.97;;;10.40;99.90;;;;;;5056107;28;20041;-83
2023/04/24 07:13:31;;;;;;;9.55;4.78;;;10.10;99.90;;;;;;5056405;28;20066;-84
2023/04/24 07:15:57;;;;;;;8.88;5.25;;;10.30;99.90;;;;;;5071805;28;20048;-83
2023/04/24 07:18:23;;;;;;;12.10;5.22;;;10.10;99.90;;;;;;5061766;28;20582;-83
2023/04/24 07:20:51;;;;;;;8.68;4.93;;;10.30;99.90;;;;;;5058388;28;20401;-85
2023/04/24 07:23:18;;;;;;;8.50;5.47;;;10.20;99.90;;;;;;5058581;28;20127;-85
2023/04/24 07:25:44;;;;;;;7.53;5.18;;;10.20;99.90;;;;;;5058697;28;20059;-84
2023/04/24 07:28:09;;;;;;;11.52;4.93;;;10.10;99.90;;;;;;5074245;28;20058;-84
2023/04/24 07:30:35;;;;;;;8.82;4.75;;;10.10;99.90;;;;;;5025519;28;20543;-86
2023/04/24 07:33:01;;;;;;;8.15;4.55;;;10.10;99.90;;;;;;5058504;28;20530;-89
2023/04/24 07:35:27;;;;;;;4.72;2.97;;;9.80;99.90;;;;;;5059513;28;20040;-87
2023/04/24 07:37:53;;;;;;;6.03;3.55;;;10.00;99.90;;;;;;5058467;28;20054;-87
2023/04/24 07:40:20;;;;;;;8.02;3.30;;;9.90;99.90;;;;;;5051068;28;20051;-86
2023/04/24 07:42:48;;;;;;;7.15;3.45;;;10.00;99.90;;;;;;5060821;28;20048;-87
2023/04/24 07:45:14;;;;;;;5.45;3.15;;;9.80;99.90;;;;;;5042700;28;20044;-85
2023/04/24 07:47:50;;;;;;;4.82;2.90;;;9.70;99.90;;;;;;5063207;28;20485;-90
2023/04/24 07:50:16;;;;;;;;;;;9.80;99.90;;;;;;5066189;28;20044;-83
2023/04/24 07:52:41;;;;;;;4.47;2.70;;;9.80;99.90;;;;;;5056543;28;19920;-85
2023/04/24 07:55:08;;;;;;;4.40;2.30;;;9.90;99.90;;;;;;5046440;28;20096;-83
2023/04/24 07:57:33;;;;;;;6.65;3.20;;;9.80;99.90;;;;;;5067631;28;20090;-83
2023/04/24 07:59:59;;;;;;;5.43;2.80;;;9.90;99.90;;;;;;5035529;28;20087;-83
2023/04/24 08:02:29;;;;;;;4.30;2.33;;;9.60;99.90;;;;;;5073530;28;20073;-81
2023/04/24 08:04:54;;;;;;;7.03;2.60;;;9.40;99.90;;;;;;5054376;28;20053;-85
2023/04/24 08:07:20;;;;;;;7.80;2.50;;;9.70;99.90;;;;;;5039827;28;20049;-82
2023/04/24 08:09:46;;;;;;;6.60;2.90;;;9.50;99.90;;;;;;5070412;28;20048;-83
2023/04/24 08:12:15;;;;;;;7.00;2.83;;;9.40;99.90;;;;;;5039082;28;20051;-86
2023/04/24 08:14:41;;;;;;;4.32;2.85;;;10.10;99.90;;;;;;5038009;28;20056;-86
2023/04/24 08:17:10;;;;;;;3.83;2.28;;;9.70;99.90;;;;;;5055043;28;20044;-86
2023/04/24 08:19:38;;;;;;;8.38;3.33;;;10.00;99.90;;;;;;5071847;28;20127;-86
2023/04/24 08:22:04;;;;;;;8.23;3.42;;;9.70;99.90;;;;;;5070535;28;20037;-82
2023/04/24 08:24:30;;;;;;;9.60;4.32;;;9.40;99.90;;;;;;5052542;28;20779;-84
2023/04/24 08:26:57;;;;;;;12.90;5.38;;;9.80;99.90;;;;;;5036098;28;20052;-83
2023/04/24 08:29:24;;;;;;;16.13;6.07;;;9.90;99.90;;;;;;5034403;28;20043;-84
2023/04/24 08:31:49;;;;;;;18.90;7.90;;;9.60;99.90;;;;;;5053415;28;20053;-85
2023/04/24 08:34:15;;;;;;;24.85;9.43;;;9.60;99.90;;;;;;5062950;28;20051;-85
2023/04/24 08:36:41;;;;;;;23.83;9.65;;;9.70;99.90;;;;;;5055890;28;20536;-85
2023/04/24 08:39:07;;;;;;;22.83;10.10;;;10.00;99.90;;;;;;5072134;28;20052;-86
2023/04/24 08:41:34;;;;;;;25.88;10.27;;;10.20;99.90;;;;;;5055518;28;20045;-86
2023/04/24 08:44:05;;;;;;;25.40;10.90;;;9.60;99.90;;;;;;5055798;28;20135;-86
2023/04/24 08:46:31;;;;;;;28.98;11.07;;;9.40;99.90;;;;;;5054935;28;20048;-86
2023/04/24 08:49:03;;;;;;;30.45;12.02;;;9.30;99.90;;;;;;5055280;28;20397;-86
2023/04/24 08:51:30;;;;;;;26.70;10.82;;;9.70;99.90;;;;;;5036701;28;20076;-87
2023/04/24 08:53:57;;;;;;;27.38;11.77;;;9.60;99.90;;;;;;5036555;28;20057;-87
2023/04/24 08:56:24;;;;;;;26.38;11.65;;;9.10;99.90;;;;;;5043071;28;20689;-86
2023/04/24 08:58:54;;;;;;;29.27;11.75;;;9.00;99.90;;;;;;5022746;28;20436;-85
2023/04/24 09:01:20;;;;;;;27.08;12.05;;;9.30;99.90;;;;;;5075351;28;20044;-84
2023/04/24 09:03:50;;;;;;;30.33;12.07;;;9.00;99.90;;;;;;5071656;28;20460;-85
2023/04/24 09:06:17;;;;;;;26.45;11.75;;;8.90;99.90;;;;;;5042149;28;20116;-85
2023/04/24 09:08:45;;;;;;;25.17;12.38;;;9.00;99.90;;;;;;5057845;28;20188;-85
2023/04/24 09:11:11;;;;;;;29.88;13.18;;;9.10;99.90;;;;;;5055238;28;20457;-85
2023/04/24 09:13:38;;;;;;;28.02;12.45;;;8.90;99.90;;;;;;5075147;28;20048;-86
2023/04/24 09:16:06;;;;;;;28.30;12.68;;;9.00;99.90;;;;;;5058329;28;20047;-86
2023/04/24 09:18:41;;;;;;;29.13;12.27;;;8.90;99.90;;;;;;5044918;28;20044;-86
2023/04/24 09:21:09;;;;;;;30.13;12.88;;;8.90;99.90;;;;;;5084352;28;20548;-90
2023/04/24 09:23:38;;;;;;;27.92;13.43;;;8.90;99.90;;;;;;5059252;28;20055;-87
2023/04/24 09:26:07;;;;;;;38.90;14.95;;;8.80;99.90;;;;;;5057989;28;20066;-86
2023/04/24 09:28:36;;;;;;;33.88;14.07;;;8.70;99.90;;;;;;5085752;28;20037;-86
2023/04/24 09:31:06;;;;;;;29.20;13.10;;;8.70;99.90;;;;;;5038496;28;20048;-86
2023/04/24 09:33:33;;;;;;;27.65;14.50;;;9.00;99.90;;;;;;5067674;28;20501;-86
2023/04/24 09:36:02;;;;;;;30.33;14.50;;;9.40;99.90;;;;;;5057876;28;20117;-86
2023/04/24 09:38:38;;;;;;;29.65;13.48;;;9.00;99.90;;;;;;5070391;28;20222;-86
2023/04/24 09:41:06;;;;;;;31.83;14.18;;;8.80;99.90;;;;;;5057185;28;20079;-86
2023/04/24 09:43:38;;;;;;;26.23;13.13;;;8.90;99.90;;;;;;5073880;28;20494;-85
2023/04/24 09:46:06;;;;;;;27.08;12.20;;;9.30;99.90;;;;;;5057573;28;20044;-85
2023/04/24 09:48:37;;;;;;;24.00;12.38;;;9.00;99.90;;;;;;5056990;28;20093;-85
2023/04/24 09:51:11;;;;;;;30.05;12.25;;;9.00;99.90;;;;;;5044334;28;20402;-85
2023/04/24 09:53:37;;;;;;;22.90;11.65;;;9.20;99.90;;;;;;5074088;28;20048;-85
2023/04/24 09:56:08;;;;;;;21.83;11.65;;;8.90;99.90;;;;;;5091629;28;20793;-84
2023/04/24 09:58:35;;;;;;;20.40;10.52;;;8.70;99.90;;;;;;5057250;28;20493;-85
2023/04/24 10:01:04;;;;;;;18.80;10.63;;;8.80;99.90;;;;;;5057884;28;20052;-85
2023/04/24 10:03:31;;;;;;;24.83;13.45;;;8.70;99.90;;;;;;5074338;28;20123;-86
2023/04/24 10:06:08;;;;;;;20.38;11.48;;;9.00;99.90;;;;;;5074401;28;20048;-86
2023/04/24 10:08:36;;;;;;;19.50;10.32;;;8.90;99.90;;;;;;5055222;28;20634;-85
2023/04/24 10:11:01;;;;;;;23.17;12.00;;;8.90;99.90;;;;;;5046194;28;20047;-86
2023/04/24 10:13:30;;;;;;;28.13;16.40;;;8.90;99.90;;;;;;5042039;28;20044;-85
2023/04/24 10:15:59;;;;;;;20.88;11.50;;;9.50;99.90;;;;;;5072255;28;20051;-86
2023/04/24 10:18:26;;;;;;;28.60;14.05;;;9.00;99.90;;;;;;5058219;28;20047;-87
2023/04/24 10:20:54;;;;;;;22.85;12.55;;;8.80;99.90;;;;;;5064982;28;20173;-86
2023/04/24 10:23:23;;;;;;;21.33;9.88;;;8.90;99.90;;;;;;5067697;28;20458;-86
2023/04/24 10:25:52;;;;;;;16.85;8.82;;;8.90;99.90;;;;;;5052466;28;20516;-86
2023/04/24 10:28:20;;;;;;;20.52;9.50;;;9.00;99.90;;;;;;5081162;28;20610;-86
2023/04/24 10:30:50;;;;;;;17.92;9.45;;;9.20;99.90;;;;;;5082421;28;20044;-85
2023/04/24 10:33:17;;;;;;;15.90;7.00;;;9.10;99.90;;;;;;5071570;28;20048;-88
2023/04/24 10:35:45;;;;;;;12.90;6.00;;;9.00;99.90;;;;;;5047111;28;20044;-85
2023/04/24 10:38:26;;;;;;;18.38;8.70;;;9.10;99.90;;;;;;5073634;28;20047;-85
2023/04/24 10:41:07;;;;;;;14.88;6.28;;;8.70;99.90;;;;;;5057753;28;20051;-85
2023/04/24 10:43:33;;;;;;;15.82;5.72;;;9.40;99.90;;;;;;5091287;28;20504;-85
2023/04/24 10:46:05;;;;;;;13.00;5.90;;;9.10;99.90;;;;;;5057535;28;20060;-85
2023/04/24 10:48:32;;;;;;;14.05;5.53;;;9.10;99.90;;;;;;5073783;28;20048;-86
2023/04/24 10:50:58;;;;;;;14.20;6.60;;;8.80;99.90;;;;;;5057246;28;20673;-85
2023/04/24 10:53:28;;;;;;;9.73;4.80;;;8.60;99.90;;;;;;5057147;28;20051;-85
2023/04/24 10:56:06;;;;;;;10.48;4.10;;;8.70;99.90;;;;;;5069834;28;20405;-86
2023/04/24 10:58:46;;;;;;;9.40;4.70;;;8.30;99.90;;;;;;5066707;28;20062;-85
2023/04/24 11:01:26;;;;;;;13.35;4.53;;;8.70;99.90;;;;;;5074090;28;20489;-85
2023/04/24 11:03:56;;;;;;;9.23;3.92;;;8.80;99.90;;;;;;5040644;28;20120;-85
2023/04/24 11:06:33;;;;;;;7.15;3.85;;;8.50;99.90;;;;;;5053730;28;20055;-85
2023/04/24 11:09:07;;;;;;;7.65;3.83;;;8.60;99.90;;;;;;5057432;28;20040;-85
2023/04/24 11:11:34;;;;;;;8.18;3.95;;;8.50;99.90;;;;;;5053434;28;20105;-85
2023/04/24 11:13:59;;;;;;;12.75;4.40;;;9.30;99.90;;;;;;5054918;28;20562;-85
2023/04/24 11:16:38;;;;;;;8.93;3.65;;;8.80;99.90;;;;;;5073258;28;20134;-87
2023/04/24 11:19:18;;;;;;;5.40;3.03;;;9.20;99.90;;;;;;5073594;28;20040;-85
2023/04/24 11:22:02;;;;;;;8.77;3.28;;;9.60;99.90;;;;;;5056714;28;20601;-84
2023/04/24 11:24:50;;;;;;;13.93;4.30;;;9.30;99.90;;;;;;5056714;28;20082;-85
2023/04/24 11:27:22;;;;;;;9.57;4.00;;;9.10;99.90;;;;;;5038914;28;20136;-85
2023/04/24 11:29:59;;;;;;;8.68;2.92;;;8.90;99.90;;;;;;5066792;28;20059;-85
2023/04/24 11:32:26;;;;;;;6.80;2.80;;;8.70;99.90;;;;;;5066591;28;20073;-89
2023/04/24 11:34:57;;;;;;;8.93;2.80;;;8.50;99.90;;;;;;5052031;28;20114;-85
2023/04/24 11:37:26;;;;;;;11.25;4.22;;;8.30;99.90;;;;;;5063083;28;20052;-86
2023/04/24 11:39:56;;;;;;;6.40;2.80;;;8.30;99.90;;;;;;5056096;28;20135;-86
2023/04/24 11:42:23;;;;;;;11.18;2.65;;;8.50;99.90;;;;;;5056682;28;20048;-85
2023/04/24 11:44:51;;;;;;;7.05;2.40;;;8.30;99.90;;;;;;5072479;28;20130;-85
2023/04/24 11:47:17;;;;;;;6.53;2.10;;;8.60;99.90;;;;;;5060031;28;20135;-86
2023/04/24 11:49:43;;;;;;;6.03;2.22;;;8.70;99.90;;;;;;5059812;28;20123;-85
2023/04/24 11:52:16;;;;;;;4.93;2.30;;;8.90;99.90;;;;;;5076256;28;20498;-86
2023/04/24 11:54:52;;;;;;;8.85;3.00;;;9.00;99.90;;;;;;5069623;28;20053;-86
2023/04/24 11:57:23;;;;;;;8.20;2.13;;;8.90;99.90;;;;;;5054936;28;20056;-87
2023/04/24 11:59:49;;;;;;;5.82;1.92;;;8.80;99.90;;;;;;5047562;28;20128;-84
2023/04/24 12:02:26;;;;;;;5.70;1.85;;;8.70;99.90;;;;;;5055692;28;20083;-85
2023/04/24 12:04:55;;;;;;;6.28;2.28;;;8.50;99.90;;;;;;5049548;28;20052;-84
2023/04/24 12:07:22;;;;;;;5.68;2.00;;;8.50;99.90;;;;;;5043027;28;20040;-84
2023/04/24 12:09:59;;;;;;;6.22;1.80;;;8.50;99.90;;;;;;5056468;28;20531;-86
2023/04/24 12:12:27;;;;;;;7.53;1.95;;;8.40;99.90;;;;;;5053015;28;20040;-85
2023/04/24 12:14:54;;;;;;;4.35;1.50;;;8.20;99.90;;;;;;5067059;28;20436;-86
2023/04/24 12:17:29;;;;;;;4.00;1.65;;;8.20;99.90;;;;;;5069041;28;20193;-84
2023/04/24 12:20:04;;;;;;;4.60;1.58;;;8.20;99.90;;;;;;5056114;28;20127;-86
2023/04/24 12:23:00;;;;;;;5.15;1.38;;;8.20;99.90;;;;;;5065883;28;20566;-86
2023/04/24 12:25:35;;;;;;;5.18;1.80;;;8.30;99.90;;;;;;5028123;28;20053;-85
2023/04/24 12:28:04;;;;;;;4.28;1.55;;;8.30;99.90;;;;;;5047761;28;20090;-85
2023/04/24 12:30:31;;;;;;;5.65;1.50;;;8.30;90.20;;;;;;5052187;28;20128;-85
2023/04/24 12:32:58;;;;;;;7.25;3.35;;;8.60;99.90;;;;;;5066110;28;20052;-86
2023/04/24 12:35:31;;;;;;;5.90;1.58;;;8.70;99.90;;;;;;5059576;28;20471;-86
2023/04/24 12:38:06;;;;;;;4.43;1.45;;;8.90;99.90;;;;;;5055508;28;20055;-85
2023/04/24 12:40:32;;;;;;;3.38;1.45;;;9.00;58.70;;;;;;5055499;28;20135;-86
2023/04/24 12:42:58;;;;;;;9.13;2.20;;;9.00;33.50;;;;;;5034389;28;20174;-86
2023/04/24 12:45:25;;;;;;;5.78;1.50;;;9.10;69.50;;;;;;5034547;28;20053;-86
2023/04/24 12:47:51;;;;;;;3.28;1.00;;;8.90;69.40;;;;;;5050082;28;20044;-87
2023/04/24 12:50:17;;;;;;;2.85;0.95;;;8.90;4.70;;;;;;5065440;28;20125;-85
2023/04/24 12:52:43;;;;;;;2.95;1.40;;;8.70;3.50;;;;;;5055820;28;20136;-85
2023/04/24 12:55:09;;;;;;;2.83;0.90;;;8.80;1.00;;;;;;5046044;28;20053;-86